Latest Weather Observations for Edithburgh

IDS60801

Issued at 6:31 am CDT Tuesday 13 November 2018 (issued every 10 minutes, with the page automatically refreshed every 10 minutes)

About weather observations | Map of weather stations | Latest weather observations for SA | Other Formats
Station Details ID: 022046 Name: EDITHBURGH Lat: -35.11 Lon: 137.74 Height: 6.0 m
Data from the previous 72 hours. | See also: Recent months at Edithburgh
Date/Time
CDT
Temp
°C
App
Temp
°C
Dew
Point
°C
Rel
Hum
%
Delta-T
°C
Wind Press
QNH
hPa
Press
MSL
hPa
Rain since
9am
mm
Dir  Spd
km/h
Gust
km/h
Spd
kts
Gust
kts
13/06:30am 17.4 16.1 15.7 90 1.0 S 17 22 9 12 1009.5 1009.5 0.0
13/06:00am 17.6 17.4 15.6 88 1.2 SSW 11 15 6 8 1008.6 1008.6 0.0
13/05:30am 17.5 16.8 15.3 87 1.3 WSW 13 19 7 10 1008.5 1008.5 0.0
13/05:00am 17.8 17.0 15.2 85 1.5 WSW 13 20 7 11 1008.8 1008.8 0.0
13/04:30am 18.1 16.4 14.8 81 1.9 SW 17 26 9 14 1008.5 1008.5 0.0
13/04:00am 18.2 17.1 14.2 77 2.3 WSW 13 17 7 9 1008.4 1008.4 0.0
13/03:30am 18.5 16.6 14.2 76 2.5 WSW 17 24 9 13 1008.4 1008.4 0.0
13/03:00am 18.6 17.6 13.3 71 3.0 WSW 11 17 6 9 1008.0 1008.0 0.0
13/02:30am 19.7 17.5 13.4 67 3.6 SW 17 22 9 12 1007.8 1007.8 0.0
13/02:00am 20.5 18.8 12.3 59 4.6 WSW 13 20 7 11 1007.9 1007.9 0.0
13/01:30am 21.5 19.9 13.9 62 4.4 NNW 15 26 8 14 1008.0 1008.0 0.0
13/01:00am 21.3 21.1 15.8 71 3.3 NNE 11 17 6 9 1007.7 1007.7 0.0
13/12:30am 20.8 20.8 16.3 75 2.7 NNE 11 17 6 9 1007.9 1007.9 0.0
13/12:00am 20.2 20.9 17.1 82 1.9 NNE 9 15 5 8 1008.3 1008.3 0.0
 
Date/Time
CDT
Temp
°C
App
Temp
°C
Dew
Point
°C
Rel
Hum
%
Delta-T
°C
Wind Press
QNH
hPa
Press
MSL
hPa
Rain since
9am
mm
Dir  Spd
km/h
Gust
km/h
Spd
kts
Gust
kts
12/11:30pm 20.4 19.4 16.6 79 2.3 NNE 17 26 9 14 1008.7 1008.7 0.0
12/11:00pm 20.3 19.5 15.0 71 3.1 NE 13 19 7 10 1008.8 1008.8 0.0
12/10:30pm 20.1 18.6 15.4 74 2.8 NE 17 22 9 12 1009.2 1009.2 0.0
12/10:00pm 19.8 18.0 15.9 78 2.3 NE 20 28 11 15 1009.6 1009.6 0.0
12/09:30pm 19.6 17.4 15.9 79 2.2 NE 22 32 12 17 1009.5 1009.5 0.0
12/09:00pm 19.7 20.2 16.5 82 1.9 NE 9 17 5 9 1009.7 1009.7 0.0
12/08:30pm 19.9 20.0 15.5 76 2.6 ESE 9 13 5 7 1009.2 1009.2 0.0
12/08:00pm 20.2 19.9 15.5 74 2.8 ESE 11 19 6 10 1009.8 1009.8 0.0
12/07:30pm 20.3 20.1 14.8 70 3.2 WNW 9 24 5 13 1010.5 1010.5 0.0
12/07:00pm 20.1 20.8 15.6 75 2.7 SSE 6 9 3 5 1010.2 1010.2 0.0
12/06:30pm 20.8 21.7 15.2 70 3.3 SW 4 7 2 4 1010.8 1010.8 0.0
12/06:00pm 21.1 20.7 15.2 69 3.5 SW 11 17 6 9 1010.9 1010.9 0.0
12/05:30pm 20.8 20.6 15.8 73 3.0 WSW 11 19 6 10 1010.9 1010.9 0.0
12/05:00pm 20.4 19.9 15.9 75 2.7 SSW 13 19 7 10 1010.7 1010.7 0.0
12/04:30pm 21.6 19.8 15.6 68 3.6 SSW 19 33 10 18 1010.9 1010.9 0.0
12/04:00pm 23.1 19.0 14.9 60 4.9 WSW 30 43 16 23 1010.2 1010.2 0.0
12/03:52pm 24.5 20.4 15.0 55 5.7 WSW 30 48 16 26 1010.1 1010.1 0.0
12/03:30pm 24.3 19.0 14.3 53 5.9 SW 35 52 19 28 1010.2 1010.2 0.0
12/03:00pm 24.9 18.4 13.0 47 6.9 WSW 39 57 21 31 1010.3 1010.3 0.0
12/02:56pm 26.0 19.5 12.8 44 7.7 SW 39 57 21 31 1010.3 1010.3 0.0
12/02:49pm 25.8 19.2 12.7 44 7.6 WSW 39 54 21 29 1010.3 1010.3 0.0
12/02:42pm 28.0 21.6 7.0 26 11.2 WNW 30 54 16 29 1010.4 1010.4 0.0
12/02:30pm 32.8 23.9 -12.2 5 17.9 NW 30 39 16 21 1010.0 1010.0 0.0
12/02:00pm 33.5 24.5 -13.3 4 18.4 NW 30 46 16 25 1010.0 1010.0 0.0
12/01:30pm 33.1 23.4 -15.9 3 18.4 NNW 33 46 18 25 1010.2 1010.2 0.0
12/01:00pm 33.8 24.2 -13.6 4 18.6 NNW 33 50 18 27 1010.3 1010.3 0.0
12/12:30pm 32.8 22.8 -14.4 4 18.1 NNW 35 46 19 25 1010.4 1010.4 0.0
12/12:00pm 34.6 25.3 -13.0 4 19.0 NNW 32 46 17 25 1010.9 1010.9 0.0
12/11:30am 32.1 22.5 -14.4 4 17.7 NNW 33 46 18 25 1011.3 1011.3 0.0
12/11:00am 30.9 22.4 -11.1 6 16.7 NNW 28 41 15 22 1011.5 1011.5 0.0
12/10:51am 30.4 23.8 -8.6 7 16.1 N 19 33 10 18 1011.5 1011.5 0.0
12/10:30am 25.1 22.7 11.5 42 7.7 NNE 15 26 8 14 1011.5 1011.5 0.0
12/10:00am 22.3 21.3 14.5 61 4.6 NE 13 22 7 12 1011.6 1011.6 0.0
12/09:30am 21.6 21.9 16.1 71 3.3 NNE 9 15 5 8 1012.1 1012.1 0.0
12/09:00am 20.6 21.1 16.5 77 2.5 NNE 9 13 5 7 1012.3 1012.3 0.0
12/08:30am 21.1 21.0 16.1 73 3.0 NNE 11 17 6 9 1012.0 1012.0 0.0
12/08:00am 20.1 20.5 16.3 79 2.3 NNE 9 15 5 8 1011.6 1011.6 0.0
12/07:30am 19.8 19.9 15.6 77 2.5 NNE 9 17 5 9 1011.3 1011.3 0.0
12/07:00am 19.8 19.3 14.8 73 2.9 NNE 11 17 6 9 1011.0 1011.0 0.0
12/06:30am 19.9 19.2 14.2 69 3.3 NNE 11 17 6 9 1010.9 1010.9 0.0
12/06:00am 19.7 19.6 14.9 74 2.8 NNE 9 17 5 9 1010.8 1010.8 0.0
12/05:30am 19.5 18.9 14.7 74 2.8 NNE 11 17 6 9 1010.6 1010.6 0.0
12/05:00am 19.6 17.9 13.5 68 3.5 NE 15 17 8 9 1010.6 1010.6 0.0
12/04:30am 18.9 17.6 13.8 72 2.9 NE 13 15 7 8 1010.9 1010.9 0.0
12/04:00am 18.0 17.4 13.4 74 2.6 NE 9 13 5 7 1011.1 1011.1 0.0
12/03:30am 17.3 16.5 12.8 75 2.5 E 9 9 5 5 1011.4 1011.4 0.0
12/03:00am 18.1 17.7 12.9 71 2.9 ESE 7 9 4 5 1011.6 1011.6 0.0
12/02:30am 17.6 16.3 12.4 71 2.9 E 11 13 6 7 1011.9 1011.9 0.0
12/02:00am 19.2 18.9 12.6 65 3.7 ESE 6 9 3 5 1012.4 1012.4 0.0
12/01:30am 19.3 18.2 13.1 67 3.5 SE 11 17 6 9 1012.6 1012.6 0.0
12/01:00am 19.1 17.6 13.1 68 3.4 SE 13 17 7 9 1013.0 1013.0 0.0
12/12:30am 18.4 17.6 14.0 75 2.5 SE 11 15 6 8 1013.5 1013.5 0.0
12/12:00am 18.1 17.6 14.8 81 1.9 SE 11 13 6 7 1013.8 1013.8 0.0
 
Date/Time
CDT
Temp
°C
App
Temp
°C
Dew
Point
°C
Rel
Hum
%
Delta-T
°C
Wind Press
QNH
hPa
Press
MSL
hPa
Rain since
9am
mm
Dir  Spd
km/h
Gust
km/h
Spd
kts
Gust
kts
11/11:30pm 18.7 17.6 14.4 76 2.5 SE 13 15 7 8 1014.2 1014.2 0.0
11/11:00pm 18.9 17.5 14.4 75 2.6 SE 15 19 8 10 1014.3 1014.3 0.0
11/10:30pm 18.8 17.4 14.5 76 2.5 SE 15 19 8 10 1014.5 1014.5 0.0
11/10:00pm 19.1 18.4 14.2 73 2.8 SE 11 15 6 8 1014.7 1014.7 0.0
11/09:30pm 19.5 18.5 14.5 73 2.9 SE 13 15 7 8 1014.7 1014.7 0.0
11/09:00pm 19.7 18.6 14.4 71 3.1 SE 13 19 7 10 1014.4 1014.4 0.0
11/08:30pm 19.5 17.9 12.9 65 3.7 SE 13 17 7 9 1014.3 1014.3 0.0
11/08:00pm 19.2 18.6 13.4 69 3.3 SSE 9 13 5 7 1014.2 1014.2 0.0
11/07:30pm 19.6 18.4 12.7 64 3.9 SE 11 15 6 8 1013.8 1013.8 0.0
11/07:00pm 20.0 18.8 12.7 63 4.1 SSE 11 15 6 8 1013.7 1013.7 0.0
11/06:30pm 20.4 18.2 12.2 59 4.6 SSE 15 19 8 10 1013.8 1013.8 0.0
11/06:00pm 21.0 19.1 11.9 56 5.1 SSE 13 19 7 10 1014.1 1014.1 0.0
11/05:30pm 21.6 19.5 12.4 55 5.2 SSE 15 20 8 11 1014.3 1014.3 0.0
11/05:00pm 21.3 18.4 12.4 57 5.0 SSE 19 24 10 13 1014.1 1014.1 0.0
11/04:30pm 21.4 19.0 12.6 57 5.0 SSE 17 22 9 12 1014.5 1014.5 0.0
11/04:00pm 21.6 19.0 12.0 54 5.4 SSE 17 20 9 11 1015.0 1015.0 0.0
11/03:30pm 21.4 18.7 11.7 54 5.4 SE 17 22 9 12 1015.3 1015.3 0.0
11/03:00pm 21.6 18.4 11.3 52 5.7 SE 19 22 10 12 1015.7 1015.7 0.0
11/02:30pm 20.9 18.0 12.2 57 4.9 SE 19 22 10 12 1016.1 1016.1 0.0
11/02:00pm 20.4 17.8 10.6 53 5.3 SE 15 20 8 11 1016.6 1016.6 0.0
11/01:30pm 21.0 18.9 11.0 52 5.5 SE 13 17 7 9 1016.9 1016.9 0.0
11/01:00pm 20.2 18.1 11.3 56 4.9 SE 13 20 7 11 1017.3 1017.3 0.0
11/12:30pm 20.4 18.3 11.1 55 5.1 ESE 13 17 7 9 1017.7 1017.7 0.0
11/12:00pm 20.7 18.8 10.6 52 5.5 E 11 19 6 10 1018.2 1018.2 0.0
11/11:30am 19.9 17.2 8.8 48 5.8 E 13 19 7 10 1018.7 1018.7 0.0
11/11:00am 19.7 17.7 10.0 53 5.2 E 11 17 6 9 1019.0 1019.0 0.0
11/10:30am 18.9 17.4 10.5 58 4.5 ENE 9 17 5 9 1019.0 1019.0 0.0
11/10:00am 19.2 17.1 9.8 54 5.0 ENE 11 13 6 7 1019.1 1019.1 0.0
11/09:30am 18.6 16.8 10.8 60 4.2 NE 11 17 6 9 1019.2 1019.2 0.0
11/09:00am 17.9 15.7 12.1 69 3.2 ENE 15 19 8 10 1019.2 1019.2 0.0
11/08:30am 17.6 15.3 11.9 69 3.1 E 15 19 8 10 1019.3 1019.3 0.0
11/08:00am 17.4 15.3 12.3 72 2.8 E 15 19 8 10 1019.1 1019.1 0.0
11/07:30am 17.3 17.0 17.3 100 0.0 ENE 15 19 8 10 1019.1 1019.1 0.0
11/07:00am 15.8 14.5 15.8 100 0.0 E 17 22 9 12 1019.2 1019.2 0.0
11/06:30am 15.0 13.0 15.0 100 0.0 ESE 19 22 10 12 1018.9 1018.9 0.0
11/06:00am 14.6 12.3 14.6 100 0.0 ESE 20 26 11 14 1018.7 1018.7 0.0
11/05:30am 14.7 12.6 14.7 100 0.0 ESE 19 24 10 13 1018.6 1018.6 0.0
11/05:00am 14.7 12.6 14.7 100 0.0 ESE 19 24 10 13 1018.3 1018.3 0.0
11/04:30am 14.6 12.9 14.6 100 0.0 ESE 17 22 9 12 1018.0 1018.0 0.0
11/04:00am 14.6 13.2 14.6 100 0.0 ESE 15 19 8 10 1018.0 1018.0 0.0
11/03:30am 14.1 12.9 14.1 100 0.0 E 13 19 7 10 1018.2 1018.2 0.0
11/03:00am 13.5 12.5 13.5 100 0.0 E 11 13 6 7 1018.4 1018.4 0.0
11/02:30am 14.3 13.6 14.3 100 0.0 E 11 17 6 9 1018.7 1018.7 0.0
11/02:00am 14.8 13.5 14.8 100 0.0 E 15 19 8 10 1018.9 1018.9 0.0
11/01:30am 15.2 13.3 15.2 100 0.0 ESE 19 24 10 13 1019.2 1019.2 0.0
11/01:00am 15.3 13.2 15.3 100 0.0 ESE 20 28 11 15 1019.5 1019.5 0.0
11/12:30am 15.3 13.8 15.3 100 0.0 ESE 17 22 9 12 1019.5 1019.5 0.0
11/12:00am 15.3 14.2 15.3 100 0.0 ESE 15 20 8 11 1019.5 1019.5 0.0
 
Date/Time
CDT
Temp
°C
App
Temp
°C
Dew
Point
°C
Rel
Hum
%
Delta-T
°C
Wind Press
QNH
hPa
Press
MSL
hPa
Rain since
9am
mm
Dir  Spd
km/h
Gust
km/h
Spd
kts
Gust
kts
10/11:30pm 15.7 14.0 15.7 100 0.0 SE 19 22 10 12 1019.4 1019.4 0.0
10/11:00pm 16.0 13.1 16.0 100 0.0 SSE 26 33 14 18 1019.4 1019.4 0.0
10/10:30pm 16.0 13.4 16.0 100 0.0 SSE 24 30 13 16 1019.6 1019.6 0.0
10/10:00pm 16.1 13.6 16.1 100 0.0 SSE 24 30 13 16 1019.9 1019.8 0.0
10/09:30pm 16.2 13.3 16.2 100 0.0 SE 26 33 14 18 1019.3 1019.3 0.0
10/09:00pm 16.5 13.8 16.5 100 0.0 SSE 26 35 14 19 1018.9 1018.9 0.0
10/08:30pm 16.7 15.4 16.7 100 0.0 SSE 19 26 10 14 1018.9 1018.9 0.0
10/08:00pm 17.2 16.4 17.2 100 0.0 SSE 17 22 9 12 1018.5 1018.5 0.0
10/07:30pm 17.9 17.8 17.9 100 0.0 S 15 20 8 11 1018.2 1018.2 0.0
10/07:00pm 18.5 19.1 18.5 100 0.0 S 13 17 7 9 1018.0 1018.0 0.0
10/06:30pm 19.8 22.1 19.8 100 0.0 S 7 13 4 7 1018.0 1018.0 0.0
10/06:00pm 20.5 23.0 20.2 98 0.2 S 7 13 4 7 1018.2 1018.2 0.0
10/05:30pm 20.1 22.1 19.9 99 0.1 SE 9 13 5 7 1018.2 1018.2 0.0
10/05:00pm 21.0 23.1 21.0 100 0.0 SSE 11 17 6 9 1018.3 1018.3 0.0
10/04:30pm 20.0 21.6 20.0 100 0.0 SE 11 15 6 8 1018.4 1018.4 0.0
10/04:00pm 19.8 20.8 19.5 98 0.2 SSE 13 17 7 9 1018.4 1018.4 0.0
10/03:30pm 19.9 20.7 19.9 100 0.0 SSE 15 17 8 9 1018.4 1018.4 0.0
10/03:00pm 19.8 20.2 19.8 100 0.0 SE 17 20 9 11 1018.4 1018.4 0.0
10/02:30pm 20.1 20.6 20.1 100 0.0 ESE 17 22 9 12 1018.5 1018.5 0.0
10/02:00pm 21.2 22.6 21.0 99 0.1 ESE 15 22 8 12 1018.8 1018.8 0.0
10/01:30pm 20.3 20.9 20.3 100 0.0 ESE 17 22 9 12 1018.7 1018.7 0.0
10/01:00pm 21.0 21.7 20.4 96 0.4 ESE 17 22 9 12 1018.8 1018.8 0.0
10/12:30pm 20.1 20.6 20.1 100 0.0 E 17 24 9 13 1019.0 1019.0 0.0
10/12:00pm 19.4 19.6 19.4 100 0.0 E 17 20 9 11 1019.3 1019.3 0.0
10/11:30am 19.5 20.0 19.3 99 0.1 E 15 20 8 11 1019.5 1019.5 0.0
10/11:00am 18.9 19.3 18.9 100 0.0 ENE 15 22 8 12 1020.0 1019.9 0.0
10/10:30am 18.8 18.7 16.1 84 1.6 ENE 11 17 6 9 1020.3 1020.2 0.0
10/10:00am 18.7 17.0 12.4 67 3.5 SE 13 17 7 9 1020.4 1020.3 0.0
10/09:30am 17.9 16.3 11.7 67 3.4 ESE 11 15 6 8 1020.5 1020.4 0.0
10/09:00am 17.5 16.3 11.6 68 3.2 SE 9 15 5 8 1020.4 1020.3 0.0
10/08:30am 17.4 16.1 11.3 67 3.3 ESE 9 13 5 7 1020.2 1020.1 0.0
10/08:00am 16.8 15.5 11.4 70 2.9 ESE 9 11 5 6 1019.7 1019.7 0.0
10/07:30am 16.2 15.7 12.0 76 2.3 E 6 7 3 4 1019.4 1019.4 0.0
10/07:00am 14.6 14.3 12.8 89 1.0 E 6 7 3 4 1019.2 1019.2 0.0

Other Formats:

Comma delimited format used in spreadsheet applications
http://www.bom.gov.au/fwo/IDS60801/IDS60801.94809.axf

JavaScript Object Notation format (JSON) in row-major order
http://www.bom.gov.au/fwo/IDS60801/IDS60801.94809.json